createdAt,value
2022-10-07T00:01:17.945Z,71.20
2022-10-07T00:04:23.558Z,71.30
2022-10-07T00:07:27.168Z,71.30
2022-10-07T00:10:31.039Z,71.20
2022-10-07T00:13:35.865Z,71.30
2022-10-07T00:16:41.579Z,71.30
2022-10-07T00:19:47.286Z,71.30
2022-10-07T00:22:52.846Z,71.40
2022-10-07T00:26:00.652Z,71.40
2022-10-07T00:29:05.291Z,71.50
2022-10-07T00:32:08.978Z,71.50
2022-10-07T00:35:14.795Z,71.50
2022-10-07T00:38:19.217Z,71.60
2022-10-07T00:41:25.460Z,71.60
2022-10-07T00:44:41.264Z,71.60
2022-10-07T00:47:48.196Z,71.70
2022-10-07T00:50:56.311Z,71.70
2022-10-07T00:54:01.822Z,71.80
2022-10-07T00:57:06.490Z,71.80
2022-10-07T01:00:10.601Z,71.80
2022-10-07T01:03:14.569Z,71.80
2022-10-07T01:06:20.231Z,71.70
2022-10-07T01:09:23.993Z,71.80
2022-10-07T01:12:39.560Z,71.80
2022-10-07T01:15:52.451Z,71.90
2022-10-07T01:19:03.247Z,72.00
2022-10-07T01:22:21.274Z,72.00
2022-10-07T01:25:33.762Z,72.10
2022-10-07T01:28:42.838Z,72.10
2022-10-07T01:31:51.241Z,72.10
2022-10-07T01:34:57.228Z,72.10
2022-10-07T01:38:06.463Z,72.20
2022-10-07T01:41:15.706Z,72.20
2022-10-07T01:44:22.183Z,72.30
2022-10-07T01:47:27.790Z,72.30
2022-10-07T01:50:32.566Z,72.30
2022-10-07T01:53:49.258Z,72.40
2022-10-07T01:57:03.354Z,72.50
2022-10-07T02:00:13.593Z,72.50
2022-10-07T02:03:38.917Z,72.50
2022-10-07T02:06:50.390Z,72.60
2022-10-07T02:10:00.413Z,72.60
2022-10-07T02:13:11.762Z,72.60
2022-10-07T02:16:22.978Z,72.70
2022-10-07T02:19:30.452Z,72.70
2022-10-07T02:22:36.465Z,72.70
2022-10-07T02:25:45.748Z,72.70
2022-10-07T02:28:53.578Z,72.80
2022-10-07T02:32:02.877Z,72.80
2022-10-07T02:35:14.036Z,72.90
2022-10-07T02:38:19.074Z,72.90
2022-10-07T02:41:32.691Z,72.90
2022-10-07T02:44:50.321Z,73.00
2022-10-07T02:48:01.074Z,73.00
2022-10-07T02:51:09.540Z,73.10
2022-10-07T02:54:13.827Z,73.10
2022-10-07T02:57:20.738Z,73.10
2022-10-07T03:00:25.367Z,73.20
2022-10-07T03:03:32.049Z,73.80
2022-10-07T03:06:41.453Z,73.30
2022-10-07T03:09:45.318Z,73.30
2022-10-07T03:12:49.886Z,73.30
2022-10-07T03:15:53.704Z,73.30
2022-10-07T03:19:03.633Z,73.30
2022-10-07T03:22:10.771Z,73.10
2022-10-07T03:25:17.237Z,73.20
2022-10-07T03:28:21.866Z,73.30
2022-10-07T03:31:26.872Z,73.40
2022-10-07T03:34:35.426Z,73.40
2022-10-07T03:37:39.098Z,73.50
2022-10-07T03:40:46.268Z,73.60
2022-10-07T03:43:50.101Z,73.60
2022-10-07T03:46:58.269Z,73.60
2022-10-07T03:50:06.180Z,73.70
2022-10-07T03:53:10.112Z,73.70
2022-10-07T03:56:14.091Z,73.70
2022-10-07T03:59:20.100Z,73.70
2022-10-07T04:02:24.981Z,73.80
2022-10-07T04:05:30.577Z,73.80
2022-10-07T04:08:35.120Z,73.90
2022-10-07T04:11:41.134Z,73.90
2022-10-07T04:14:45.761Z,73.90
2022-10-07T04:17:50.607Z,74.00
2022-10-07T04:21:00.558Z,74.00
2022-10-07T04:24:05.670Z,74.10
2022-10-07T04:27:09.654Z,74.00
2022-10-07T04:30:14.385Z,74.00
2022-10-07T04:33:18.987Z,74.10
2022-10-07T04:36:25.037Z,74.10
2022-10-07T04:39:59.614Z,74.20
2022-10-07T04:43:22.792Z,74.20
2022-10-07T04:46:32.235Z,74.10
2022-10-07T04:49:46.087Z,74.20
2022-10-07T04:52:51.715Z,74.20
2022-10-07T04:55:55.814Z,74.20
2022-10-07T04:59:01.714Z,74.20
2022-10-07T05:02:06.269Z,74.30
2022-10-07T05:05:12.481Z,74.30
2022-10-07T05:08:19.564Z,74.40
2022-10-07T05:11:25.264Z,74.40
2022-10-07T05:14:35.170Z,74.40
2022-10-07T05:17:40.525Z,74.40
2022-10-07T05:20:45.945Z,74.40
2022-10-07T05:23:51.547Z,74.50
2022-10-07T05:27:00.785Z,74.50
2022-10-07T05:30:05.009Z,74.60
2022-10-07T05:33:11.015Z,74.60
2022-10-07T05:36:16.571Z,74.70
2022-10-07T05:39:22.313Z,74.70
2022-10-07T05:42:33.195Z,74.60
2022-10-07T05:45:37.511Z,74.50
2022-10-07T05:48:41.633Z,74.60
2022-10-07T05:51:45.838Z,74.70
2022-10-07T05:54:51.850Z,74.80
2022-10-07T05:57:56.078Z,74.70
2022-10-07T06:01:06.059Z,74.60
2022-10-07T06:04:13.178Z,74.70
2022-10-07T06:07:21.466Z,74.50
2022-10-07T06:10:40.863Z,74.70
2022-10-07T06:13:49.362Z,74.80
2022-10-07T06:16:53.249Z,74.90
2022-10-07T06:19:56.917Z,74.90
2022-10-07T06:23:00.670Z,74.90
2022-10-07T06:26:08.639Z,74.80
2022-10-07T06:29:12.510Z,75.00
2022-10-07T06:32:16.274Z,75.00
2022-10-07T06:35:21.121Z,75.00
2022-10-07T06:38:27.241Z,75.10
2022-10-07T06:41:32.830Z,75.20
2022-10-07T06:44:43.929Z,75.20
2022-10-07T06:47:52.948Z,75.20
2022-10-07T06:50:59.892Z,75.20
2022-10-07T06:54:06.609Z,75.30
2022-10-07T06:57:40.240Z,75.30
2022-10-07T07:00:36.819Z,75.50
2022-10-07T07:03:41.803Z,75.50
2022-10-07T07:06:46.447Z,75.50
2022-10-07T07:09:50.389Z,75.60
2022-10-07T07:12:57.914Z,75.60
2022-10-07T07:16:01.995Z,75.70
2022-10-07T07:19:13.917Z,75.70
2022-10-07T07:22:18.915Z,75.70
2022-10-07T07:25:23.010Z,75.80
2022-10-07T07:28:30.725Z,75.90
2022-10-07T07:31:36.749Z,76.00
2022-10-07T07:34:41.649Z,76.10
2022-10-07T07:37:48.727Z,76.00
2022-10-07T07:40:52.919Z,76.10
2022-10-07T07:44:02.086Z,76.20
2022-10-07T07:47:05.943Z,76.30
2022-10-07T07:50:10.561Z,76.30
2022-10-07T07:53:14.759Z,76.30
2022-10-07T07:56:19.221Z,76.20
2022-10-07T07:59:26.210Z,76.20
2022-10-07T08:02:32.351Z,76.30
2022-10-07T08:05:36.058Z,76.30
2022-10-07T08:08:42.502Z,76.20
2022-10-07T08:11:47.580Z,76.00
2022-10-07T08:14:55.395Z,76.00
2022-10-07T08:17:59.706Z,76.00
2022-10-07T08:21:04.500Z,76.00
2022-10-07T08:24:10.056Z,75.90
2022-10-07T08:27:15.445Z,75.80
2022-10-07T08:30:21.210Z,75.80
2022-10-07T08:33:26.126Z,75.80
2022-10-07T08:36:32.250Z,75.80
2022-10-07T08:39:35.987Z,75.80
2022-10-07T08:42:43.036Z,75.70
2022-10-07T08:45:49.535Z,75.60
2022-10-07T08:48:57.630Z,75.60
2022-10-07T08:52:05.034Z,75.50
2022-10-07T08:55:18.611Z,75.40
2022-10-07T08:58:50.313Z,75.40
2022-10-07T09:02:18.314Z,75.40
2022-10-07T09:05:27.232Z,75.20
2022-10-07T09:08:37.102Z,75.10
2022-10-07T09:11:43.812Z,75.00
2022-10-07T09:14:51.700Z,74.90
2022-10-07T09:18:02.777Z,74.80
2022-10-07T09:21:15.962Z,74.70
2022-10-07T09:24:23.883Z,74.50
2022-10-07T09:27:29.055Z,74.50
2022-10-07T09:30:32.750Z,74.40
2022-10-07T09:33:43.173Z,74.30
2022-10-07T09:37:16.219Z,74.20
2022-10-07T09:40:31.578Z,74.00
2022-10-07T09:43:36.518Z,73.90
2022-10-07T09:46:48.077Z,73.90
2022-10-07T09:49:56.154Z,73.70
2022-10-07T09:53:00.026Z,73.50
2022-10-07T09:56:03.710Z,73.40
2022-10-07T09:59:19.826Z,73.30
2022-10-07T10:02:26.940Z,73.00
2022-10-07T10:05:34.737Z,73.00
2022-10-07T10:08:40.468Z,72.90
2022-10-07T10:11:44.190Z,72.60
2022-10-07T10:14:50.100Z,72.50
2022-10-07T10:17:56.279Z,72.30
2022-10-07T10:21:25.491Z,72.10
2022-10-07T10:24:44.833Z,71.60
2022-10-07T10:27:56.710Z,71.70
2022-10-07T10:31:08.330Z,71.50
2022-10-07T10:34:25.723Z,71.30
2022-10-07T10:37:44.897Z,71.10
2022-10-07T10:40:56.832Z,70.80
2022-10-07T10:44:18.646Z,70.70
2022-10-07T10:47:33.318Z,70.40
2022-10-07T10:50:45.945Z,70.20
2022-10-07T10:53:59.569Z,70.10
2022-10-07T10:57:08.825Z,69.80
2022-10-07T11:00:16.500Z,69.70
2022-10-07T11:03:38.591Z,69.50
2022-10-07T11:06:45.971Z,69.30
2022-10-07T11:09:55.909Z,69.20
2022-10-07T11:13:01.848Z,69.00
2022-10-07T11:16:10.833Z,68.90
2022-10-07T11:19:20.562Z,68.70
2022-10-07T11:22:33.632Z,68.60
2022-10-07T11:25:44.924Z,68.30
2022-10-07T11:28:50.046Z,68.10
2022-10-07T11:32:02.355Z,68.10
2022-10-07T11:35:22.699Z,67.90
2022-10-07T11:38:30.678Z,67.90
2022-10-07T11:41:42.656Z,67.90
2022-10-07T11:44:54.638Z,67.80
2022-10-07T11:48:02.182Z,67.70
2022-10-07T11:51:09.583Z,67.70
2022-10-07T11:54:17.314Z,67.60
2022-10-07T11:57:27.305Z,67.60
2022-10-07T12:00:33.431Z,67.40
2022-10-07T12:03:48.062Z,67.40
2022-10-07T12:07:21.856Z,67.10
2022-10-07T12:10:33.198Z,67.10
2022-10-07T12:13:44.597Z,67.30
2022-10-07T12:16:56.063Z,67.00
2022-10-07T12:20:29.853Z,66.90
2022-10-07T12:24:11.482Z,66.70
2022-10-07T12:27:17.613Z,66.50
2022-10-07T12:30:41.714Z,66.60
2022-10-07T12:33:57.912Z,66.10
2022-10-07T12:37:31.505Z,66.10
2022-10-07T12:40:37.197Z,65.90
2022-10-07T12:43:51.330Z,66.10
2022-10-07T12:46:58.473Z,65.90
2022-10-07T12:50:08.186Z,66.30
2022-10-07T12:53:13.675Z,66.30
2022-10-07T12:56:23.223Z,66.10
2022-10-07T12:59:48.562Z,65.80
2022-10-07T13:03:37.347Z,65.40
2022-10-07T13:07:20.128Z,65.40
2022-10-07T13:10:42.527Z,65.40
2022-10-07T13:13:54.007Z,65.60
2022-10-07T13:17:03.283Z,65.70
2022-10-07T13:20:14.842Z,65.60
2022-10-07T13:23:26.216Z,65.60
2022-10-07T13:26:31.003Z,65.50
2022-10-07T13:29:34.910Z,65.60
2022-10-07T13:32:38.588Z,65.60
2022-10-07T13:35:42.298Z,65.70
2022-10-07T13:38:49.775Z,65.70
2022-10-07T13:41:55.677Z,65.50
2022-10-07T13:45:03.877Z,65.40
2022-10-07T13:48:07.961Z,65.40
2022-10-07T13:51:19.707Z,65.50
2022-10-07T13:54:28.070Z,65.30
2022-10-07T13:57:34.558Z,65.30
2022-10-07T14:00:44.290Z,65.30
2022-10-07T14:04:19.261Z,65.20
2022-10-07T14:07:23.599Z,65.10
2022-10-07T14:10:31.047Z,65.40
2022-10-07T14:13:37.278Z,65.10
2022-10-07T14:16:41.038Z,65.10
2022-10-07T14:19:44.942Z,65.10
2022-10-07T14:22:49.633Z,65.00
2022-10-07T14:25:56.137Z,65.20
2022-10-07T14:29:19.734Z,65.30
2022-10-07T14:32:36.725Z,65.30
2022-10-07T14:35:40.494Z,65.20
2022-10-07T14:38:45.780Z,65.20
2022-10-07T14:41:51.666Z,65.10
2022-10-07T14:44:57.114Z,65.00
2022-10-07T14:48:00.733Z,65.00
2022-10-07T14:51:04.476Z,64.90
2022-10-07T14:54:09.065Z,64.80
2022-10-07T14:57:14.604Z,64.90
2022-10-07T15:00:21.189Z,64.80
2022-10-07T15:03:24.817Z,64.70
2022-10-07T15:06:29.399Z,64.80
2022-10-07T15:09:33.089Z,64.70
2022-10-07T15:12:38.630Z,64.70
2022-10-07T15:15:43.993Z,64.70
2022-10-07T15:18:52.509Z,64.60
2022-10-07T15:21:57.046Z,64.70
2022-10-07T15:25:02.759Z,64.60
2022-10-07T15:28:08.336Z,64.50
2022-10-07T15:31:12.190Z,64.50
2022-10-07T15:34:15.813Z,64.50
2022-10-07T15:37:19.446Z,64.50
2022-10-07T15:40:23.063Z,64.50
2022-10-07T15:43:32.604Z,64.50
2022-10-07T15:46:36.334Z,64.40
2022-10-07T15:49:40.482Z,64.40
2022-10-07T15:52:44.357Z,64.50
2022-10-07T15:55:53.742Z,64.40
2022-10-07T15:58:59.942Z,64.30
2022-10-07T16:02:04.143Z,64.40
2022-10-07T16:05:09.050Z,64.30
2022-10-07T16:08:12.667Z,64.50
2022-10-07T16:11:16.425Z,64.40
2022-10-07T16:14:22.009Z,64.40
2022-10-07T16:17:26.500Z,64.40
2022-10-07T16:20:30.146Z,64.50
2022-10-07T16:23:35.234Z,64.60
2022-10-07T16:26:38.902Z,64.50
2022-10-07T16:29:57.591Z,64.60
2022-10-07T16:33:01.208Z,64.60
2022-10-07T16:36:12.804Z,64.70
2022-10-07T16:39:18.068Z,64.70
2022-10-07T16:42:21.681Z,64.80
2022-10-07T16:45:27.428Z,64.90
2022-10-07T16:48:31.138Z,64.90
2022-10-07T16:51:36.847Z,65.00
2022-10-07T16:54:40.858Z,65.10
2022-10-07T16:57:44.586Z,65.20
2022-10-07T17:00:50.328Z,65.20
2022-10-07T17:03:55.191Z,65.20
2022-10-07T17:06:59.240Z,65.30
2022-10-07T17:10:02.650Z,65.30
2022-10-07T17:13:06.256Z,65.40
2022-10-07T17:16:13.019Z,65.50
2022-10-07T17:19:18.850Z,65.50
2022-10-07T17:22:22.826Z,65.50
2022-10-07T17:25:26.947Z,65.60
2022-10-07T17:28:30.603Z,65.70
2022-10-07T17:31:38.550Z,65.80
2022-10-07T17:34:45.304Z,65.80
2022-10-07T17:37:50.224Z,65.90
2022-10-07T17:40:53.849Z,65.90
2022-10-07T17:43:58.864Z,66.00
2022-10-07T17:47:04.696Z,66.10
2022-10-07T17:50:08.910Z,66.10
2022-10-07T17:53:12.501Z,66.20
2022-10-07T17:56:16.637Z,66.20
2022-10-07T17:59:20.231Z,66.90
2022-10-07T18:02:26.626Z,66.30
2022-10-07T18:05:30.305Z,66.30
2022-10-07T18:08:33.965Z,66.40
2022-10-07T18:11:51.060Z,66.50
2022-10-07T18:15:07.843Z,66.50
2022-10-07T18:18:13.390Z,66.60
2022-10-07T18:21:16.979Z,66.70
2022-10-07T18:24:20.810Z,66.70
2022-10-07T18:27:24.490Z,66.70
2022-10-07T18:30:28.175Z,66.70
2022-10-07T18:33:36.040Z,66.80
2022-10-07T18:36:39.827Z,66.90
2022-10-07T18:39:43.397Z,66.90
2022-10-07T18:42:47.071Z,66.90
2022-10-07T18:45:58.305Z,67.00
2022-10-07T18:49:03.922Z,67.00
2022-10-07T18:52:07.563Z,67.10
2022-10-07T18:55:11.417Z,67.10
2022-10-07T18:58:15.033Z,67.20
2022-10-07T19:01:20.131Z,67.20
2022-10-07T19:04:25.875Z,67.30
2022-10-07T19:07:30.467Z,67.30
2022-10-07T19:10:37.996Z,67.30
2022-10-07T19:13:51.118Z,67.30
2022-10-07T19:16:54.749Z,67.40
2022-10-07T19:20:00.409Z,67.40
2022-10-07T19:23:08.977Z,67.40
2022-10-07T19:26:12.859Z,67.50
2022-10-07T19:29:17.824Z,67.50
2022-10-07T19:32:22.411Z,67.60
2022-10-07T19:35:29.433Z,67.60
2022-10-07T19:38:33.037Z,67.60
2022-10-07T19:41:38.082Z,67.70
2022-10-07T19:44:42.635Z,68.20
2022-10-07T19:47:47.326Z,67.60
2022-10-07T19:50:59.954Z,67.70
2022-10-07T19:54:09.222Z,67.70
2022-10-07T19:57:13.126Z,67.80
2022-10-07T20:00:16.939Z,67.80
2022-10-07T20:03:20.547Z,67.90
2022-10-07T20:06:26.353Z,67.80
2022-10-07T20:09:30.037Z,67.90
2022-10-07T20:12:33.659Z,67.90
2022-10-07T20:15:37.289Z,68.00
2022-10-07T20:18:41.653Z,68.00
2022-10-07T20:21:47.708Z,68.00
2022-10-07T20:24:52.274Z,68.00
2022-10-07T20:27:55.941Z,68.00
2022-10-07T20:31:04.130Z,68.10
2022-10-07T20:34:09.086Z,68.10
2022-10-07T20:37:14.994Z,68.20
2022-10-07T20:40:31.902Z,68.20
2022-10-07T20:43:35.539Z,68.20
2022-10-07T20:46:39.392Z,68.20
2022-10-07T20:49:43.009Z,68.30
2022-10-07T20:52:49.013Z,68.30
2022-10-07T20:55:52.856Z,68.40
2022-10-07T20:58:58.127Z,68.40
2022-10-07T21:02:07.200Z,68.40
2022-10-07T21:05:12.998Z,68.40
2022-10-07T21:08:18.590Z,68.50
2022-10-07T21:11:22.251Z,68.50
2022-10-07T21:14:25.965Z,68.60
2022-10-07T21:17:29.596Z,68.70
2022-10-07T21:20:33.202Z,68.70
2022-10-07T21:23:38.930Z,68.70
2022-10-07T21:26:42.566Z,68.70
2022-10-07T21:29:48.703Z,68.80
2022-10-07T21:32:52.470Z,68.80
2022-10-07T21:36:00.758Z,68.80
2022-10-07T21:39:06.881Z,68.90
2022-10-07T21:42:10.577Z,68.90
2022-10-07T21:45:15.170Z,68.80
2022-10-07T21:48:18.835Z,69.00
2022-10-07T21:51:23.217Z,68.90
2022-10-07T21:54:29.680Z,69.00
2022-10-07T21:57:33.326Z,69.10
2022-10-07T22:00:38.045Z,69.00
2022-10-07T22:03:41.919Z,69.10
2022-10-07T22:06:59.343Z,69.10
2022-10-07T22:10:05.182Z,69.20
2022-10-07T22:13:08.783Z,69.20
2022-10-07T22:16:14.329Z,69.30
2022-10-07T22:19:18.784Z,69.30
2022-10-07T22:22:22.697Z,69.40
2022-10-07T22:25:28.323Z,69.30
2022-10-07T22:28:32.499Z,69.40
2022-10-07T22:31:36.366Z,69.40
2022-10-07T22:34:53.134Z,69.60
2022-10-07T22:37:56.741Z,69.50
2022-10-07T22:41:07.187Z,69.50
2022-10-07T22:44:10.790Z,69.60
2022-10-07T22:47:14.454Z,69.60
2022-10-07T22:50:18.233Z,69.60
2022-10-07T22:53:23.363Z,69.60
2022-10-07T22:56:29.141Z,69.60
2022-10-07T22:59:32.819Z,69.70
2022-10-07T23:02:36.560Z,69.80
2022-10-07T23:05:40.223Z,69.80
2022-10-07T23:08:43.828Z,69.90
2022-10-07T23:11:49.382Z,69.90
2022-10-07T23:14:53.893Z,69.90
2022-10-07T23:17:57.533Z,69.90
2022-10-07T23:21:02.341Z,70.00
2022-10-07T23:24:08.182Z,70.00
2022-10-07T23:27:14.357Z,70.00
2022-10-07T23:30:18.206Z,70.10
2022-10-07T23:33:21.812Z,70.20
2022-10-07T23:36:26.315Z,70.20
2022-10-07T23:39:29.941Z,70.20
2022-10-07T23:42:35.452Z,70.20
2022-10-07T23:45:39.048Z,70.30
2022-10-07T23:48:43.588Z,70.30
2022-10-07T23:51:47.246Z,70.40
2022-10-07T23:54:50.886Z,70.40
2022-10-07T23:57:56.444Z,70.50
